Time;durP1;ratioP1;P1;durP2;ratioP2;P2;SDS_P1;SDS_P2;PMS_P1;PMS_P2;Temp;Humidity;BMP_temperature;BMP_pressure;BME280_temperature;BME280_humidity;BME280_pressure;Samples;Min_cycle;Max_cycle;Signal;HPM_P1;HPM_P2
2023/10/25 00:00:48;;;;;;;13.43;7.23;;;;;;;;;;7366742;19;20605;-83
2023/10/25 00:03:15;;;;;;;13.18;7.07;;;;;;;;;;7366103;19;20252;-80
2023/10/25 00:05:41;;;;;;;12.93;8.13;;;;;;;;;;7362031;19;20350;-86
2023/10/25 00:08:06;;;;;;;13.70;8.20;;;;;;;;;;7365224;19;20098;-81
2023/10/25 00:10:31;;;;;;;15.45;8.77;;;;;;;;;;7360451;19;20061;-80
2023/10/25 00:12:57;;;;;;;13.63;8.18;;;;;;;;;;7358274;19;20042;-82
2023/10/25 00:15:22;;;;;;;14.40;8.10;;;;;;;;;;7364351;19;20003;-82
2023/10/25 00:17:48;;;;;;;14.30;8.15;;;;;;;;;;7364590;19;20285;-81
2023/10/25 00:20:13;;;;;;;13.00;7.93;;;;;;;;;;7367226;19;20613;-84
2023/10/25 00:22:38;;;;;;;11.37;7.47;;;;;;;;;;7364624;19;19995;-85
2023/10/25 00:25:03;;;;;;;11.88;7.85;;;;;;;;;;7361244;19;20907;-85
2023/10/25 00:27:28;;;;;;;11.32;8.23;;;;;;;;;;7361926;19;20286;-81
2023/10/25 00:29:53;;;;;;;10.77;7.53;;;;;;;;;;7369399;19;20648;-81
2023/10/25 00:32:19;;;;;;;11.98;7.82;;;;;;;;;;7363314;19;20248;-78
2023/10/25 00:34:44;;;;;;;10.65;7.07;;;;;;;;;;7366225;19;20267;-84
2023/10/25 00:37:09;;;;;;;10.18;7.35;;;;;;;;;;7359407;19;20116;-87
2023/10/25 00:39:34;;;;;;;9.35;6.40;;;;;;;;;;7340848;19;20336;-83
2023/10/25 00:41:59;;;;;;;10.73;6.25;;;;;;;;;;7362339;19;20068;-88
2023/10/25 00:44:25;;;;;;;12.27;6.55;;;;;;;;;;7362302;19;20795;-79
2023/10/25 00:46:50;;;;;;;11.90;7.20;;;;;;;;;;7367424;19;20002;-80
2023/10/25 00:49:16;;;;;;;11.82;8.02;;;;;;;;;;7365446;19;20731;-82
2023/10/25 00:51:41;;;;;;;11.23;7.20;;;;;;;;;;7364411;19;20006;-79
2023/10/25 00:54:07;;;;;;;11.13;7.47;;;;;;;;;;7352496;19;20427;-85
2023/10/25 00:56:33;;;;;;;59.58;11.98;;;;;;;;;;7358402;19;20014;-81
2023/10/25 00:58:59;;;;;;;139.45;17.95;;;;;;;;;;7365249;19;20003;-79
2023/10/25 01:01:25;;;;;;;25.23;10.95;;;;;;;;;;7363537;19;19998;-79
2023/10/25 01:03:51;;;;;;;40.83;11.60;;;;;;;;;;7362346;19;20003;-84
2023/10/25 01:06:16;;;;;;;34.80;12.00;;;;;;;;;;7359291;19;20031;-81
2023/10/25 01:08:42;;;;;;;79.10;13.20;;;;;;;;;;7355748;19;20029;-85
2023/10/25 01:11:07;;;;;;;132.98;18.52;;;;;;;;;;7352155;19;20420;-85
2023/10/25 01:13:32;;;;;;;57.65;11.43;;;;;;;;;;7366294;19;20002;-79
2023/10/25 01:15:57;;;;;;;86.40;14.77;;;;;;;;;;7364257;19;20103;-87
2023/10/25 01:18:23;;;;;;;109.53;16.25;;;;;;;;;;7363817;19;20630;-80
2023/10/25 01:20:48;;;;;;;50.10;13.23;;;;;;;;;;7362003;19;20130;-84
2023/10/25 01:23:13;;;;;;;46.15;12.40;;;;;;;;;;7356315;19;20417;-82
2023/10/25 01:25:39;;;;;;;26.05;13.48;;;;;;;;;;7358275;19;20007;-80
2023/10/25 01:28:04;;;;;;;35.83;13.40;;;;;;;;;;7364231;19;20093;-82
2023/10/25 01:30:29;;;;;;;51.30;16.40;;;;;;;;;;7366437;19;19995;-81
2023/10/25 01:32:55;;;;;;;24.67;12.87;;;;;;;;;;7363105;19;20408;-81
2023/10/25 01:35:20;;;;;;;86.30;16.42;;;;;;;;;;7356756;19;20256;-83
2023/10/25 01:37:46;;;;;;;34.03;12.45;;;;;;;;;;7359522;19;20712;-85
2023/10/25 01:40:11;;;;;;;74.63;16.73;;;;;;;;;;7296305;19;20360;-86
2023/10/25 01:42:36;;;;;;;21.38;11.50;;;;;;;;;;7252787;19;19998;-86
2023/10/25 01:45:01;;;;;;;46.00;14.13;;;;;;;;;;7267380;19;19999;-85
2023/10/25 01:47:27;;;;;;;36.40;12.73;;;;;;;;;;7269154;19;20752;-86
2023/10/25 01:49:52;;;;;;;36.65;12.68;;;;;;;;;;7267864;19;19998;-88
2023/10/25 01:52:18;;;;;;;57.97;14.57;;;;;;;;;;7254656;19;20014;-86
2023/10/25 01:54:45;;;;;;;33.17;13.60;;;;;;;;;;7260954;19;19999;-85
2023/10/25 01:57:10;;;;;;;27.83;12.48;;;;;;;;;;7258766;19;20811;-85
2023/10/25 01:59:35;;;;;;;54.10;15.70;;;;;;;;;;7266956;19;20230;-88
2023/10/25 02:02:00;;;;;;;93.83;19.90;;;;;;;;;;7262308;19;20007;-86
2023/10/25 02:04:25;;;;;;;56.45;16.05;;;;;;;;;;7261507;19;20917;-86
2023/10/25 02:06:52;;;;;;;129.80;18.60;;;;;;;;;;7269959;19;20001;-86
2023/10/25 02:09:17;;;;;;;262.63;24.50;;;;;;;;;;7275238;19;21348;-86
2023/10/25 02:11:42;;;;;;;37.25;14.43;;;;;;;;;;7277532;19;20436;-87
2023/10/25 02:14:08;;;;;;;42.75;13.43;;;;;;;;;;7276331;19;20010;-87
2023/10/25 02:16:33;;;;;;;92.50;16.83;;;;;;;;;;7281527;19;20297;-86
2023/10/25 02:18:58;;;;;;;81.90;19.70;;;;;;;;;;7280001;19;20795;-85
2023/10/25 02:21:23;;;;;;;31.75;13.45;;;;;;;;;;7278670;19;20696;-85
2023/10/25 02:23:48;;;;;;;56.43;15.50;;;;;;;;;;7274479;19;20459;-86
2023/10/25 02:26:14;;;;;;;61.58;13.82;;;;;;;;;;7268302;19;20786;-87
2023/10/25 02:28:39;;;;;;;49.22;13.45;;;;;;;;;;7287258;19;20218;-87
2023/10/25 02:31:04;;;;;;;78.45;16.38;;;;;;;;;;7274397;19;20078;-83
2023/10/25 02:33:29;;;;;;;47.55;14.60;;;;;;;;;;7278866;19;20287;-83
2023/10/25 02:35:55;;;;;;;31.65;12.63;;;;;;;;;;7272534;19;20406;-87
2023/10/25 02:38:20;;;;;;;24.17;12.97;;;;;;;;;;7275167;19;20680;-87
2023/10/25 02:40:45;;;;;;;25.13;12.80;;;;;;;;;;7347635;19;20333;-83
2023/10/25 02:43:10;;;;;;;24.77;13.70;;;;;;;;;;7373328;19;20028;-81
2023/10/25 02:45:35;;;;;;;39.40;15.30;;;;;;;;;;7377070;19;20002;-80
2023/10/25 02:48:01;;;;;;;23.42;13.38;;;;;;;;;;7378878;19;20263;-79
2023/10/25 02:50:26;;;;;;;38.50;15.00;;;;;;;;;;7369939;19;20518;-82
2023/10/25 02:52:51;;;;;;;19.53;12.97;;;;;;;;;;7367789;19;20340;-83
2023/10/25 02:55:16;;;;;;;21.02;12.95;;;;;;;;;;7369905;19;20260;-84
2023/10/25 02:57:42;;;;;;;22.08;13.77;;;;;;;;;;7376212;19;20247;-79
2023/10/25 03:00:07;;;;;;;19.08;12.65;;;;;;;;;;7368531;19;20022;-85
2023/10/25 03:02:33;;;;;;;30.48;14.60;;;;;;;;;;7366223;19;20442;-79
2023/10/25 03:04:58;;;;;;;72.27;17.73;;;;;;;;;;7376689;19;19999;-81
2023/10/25 03:07:23;;;;;;;44.15;16.38;;;;;;;;;;7368706;19;20243;-83
2023/10/25 03:09:48;;;;;;;34.53;15.82;;;;;;;;;;7369890;19;20062;-80
2023/10/25 03:12:13;;;;;;;51.75;18.65;;;;;;;;;;7375105;19;20235;-82
2023/10/25 03:14:39;;;;;;;44.80;17.37;;;;;;;;;;7373158;19;19999;-79
2023/10/25 03:17:04;;;;;;;24.40;15.77;;;;;;;;;;7370884;19;20228;-85
2023/10/25 03:19:29;;;;;;;30.38;17.98;;;;;;;;;;7364596;19;20494;-83
2023/10/25 03:21:55;;;;;;;24.65;16.08;;;;;;;;;;7367560;19;20243;-82
2023/10/25 03:24:21;;;;;;;27.08;18.48;;;;;;;;;;7361633;19;20430;-84
2023/10/25 03:26:46;;;;;;;25.73;17.03;;;;;;;;;;7362519;19;20062;-84
2023/10/25 03:29:11;;;;;;;21.65;15.77;;;;;;;;;;7363535;19;20246;-85
2023/10/25 03:31:38;;;;;;;22.45;16.60;;;;;;;;;;7369116;19;19999;-80
2023/10/25 03:34:03;;;;;;;27.35;17.77;;;;;;;;;;7368751;19;20006;-83
2023/10/25 03:36:28;;;;;;;26.45;18.10;;;;;;;;;;7364410;19;19994;-84
2023/10/25 03:38:53;;;;;;;28.93;18.53;;;;;;;;;;7367191;19;20006;-82
2023/10/25 03:41:18;;;;;;;28.10;19.23;;;;;;;;;;7363982;19;21103;-80
2023/10/25 03:43:43;;;;;;;30.15;20.30;;;;;;;;;;7370240;19;20538;-82
2023/10/25 03:46:09;;;;;;;25.67;18.40;;;;;;;;;;7369612;19;20238;-82
2023/10/25 03:48:35;;;;;;;40.53;20.65;;;;;;;;;;7365525;19;20506;-80
2023/10/25 03:51:06;;;;;;;25.88;17.75;;;;;;;;;;7369710;19;20011;-85
2023/10/25 03:53:38;;;;;;;32.55;20.13;;;;;;;;;;7364102;19;19999;-83
2023/10/25 03:56:03;;;;;;;24.95;18.08;;;;;;;;;;7365173;19;20011;-78
2023/10/25 03:58:28;;;;;;;26.58;17.83;;;;;;;;;;7367247;19;20007;-79
2023/10/25 04:00:58;;;;;;;26.05;17.30;;;;;;;;;;7367607;19;19999;-81
2023/10/25 04:03:23;;;;;;;21.42;16.92;;;;;;;;;;7368569;19;20009;-84
2023/10/25 04:05:48;;;;;;;23.10;16.52;;;;;;;;;;7364600;19;19995;-82
2023/10/25 04:08:14;;;;;;;26.58;16.90;;;;;;;;;;7364498;19;20021;-80
2023/10/25 04:10:39;;;;;;;23.77;16.25;;;;;;;;;;7360750;19;20013;-83
2023/10/25 04:13:04;;;;;;;24.40;16.60;;;;;;;;;;7368672;19;20028;-83
2023/10/25 04:15:34;;;;;;;22.07;15.73;;;;;;;;;;7363540;19;20915;-82
2023/10/25 04:18:00;;;;;;;22.58;15.45;;;;;;;;;;7365564;19;20295;-82
2023/10/25 04:20:29;;;;;;;26.45;16.45;;;;;;;;;;7363472;19;20084;-79
2023/10/25 04:22:54;;;;;;;22.90;15.77;;;;;;;;;;7364318;19;20010;-82
2023/10/25 04:25:20;;;;;;;22.73;16.13;;;;;;;;;;7362955;19;20026;-82
2023/10/25 04:27:45;;;;;;;23.67;15.18;;;;;;;;;;7367829;19;20006;-83
2023/10/25 04:30:10;;;;;;;21.55;15.23;;;;;;;;;;7360880;19;20554;-80
2023/10/25 04:32:35;;;;;;;21.58;15.32;;;;;;;;;;7363696;19;20239;-86
2023/10/25 04:35:00;;;;;;;21.80;15.48;;;;;;;;;;7366321;19;20019;-82
2023/10/25 04:37:26;;;;;;;25.77;15.85;;;;;;;;;;7362707;19;20228;-81
2023/10/25 04:39:51;;;;;;;27.95;15.02;;;;;;;;;;7352457;19;20227;-82
2023/10/25 04:42:16;;;;;;;23.13;15.40;;;;;;;;;;7366385;19;20262;-92
2023/10/25 04:44:41;;;;;;;21.85;14.57;;;;;;;;;;7367296;19;20331;-90
2023/10/25 04:47:06;;;;;;;24.50;14.77;;;;;;;;;;7366920;19;19998;-85
2023/10/25 04:49:32;;;;;;;22.88;13.52;;;;;;;;;;7361922;19;20602;-84
2023/10/25 04:51:57;;;;;;;20.63;13.35;;;;;;;;;;7357249;19;20007;-82
2023/10/25 04:54:22;;;;;;;18.58;13.73;;;;;;;;;;7358737;19;20127;-85
2023/10/25 04:56:47;;;;;;;25.60;12.97;;;;;;;;;;7367010;19;20009;-81
2023/10/25 04:59:12;;;;;;;23.17;13.55;;;;;;;;;;7367746;19;20763;-83
2023/10/25 05:01:37;;;;;;;20.53;13.27;;;;;;;;;;7364500;19;19999;-78
2023/10/25 05:04:03;;;;;;;19.98;13.05;;;;;;;;;;7364871;19;20311;-82
2023/10/25 05:06:28;;;;;;;19.02;12.40;;;;;;;;;;7361878;19;20240;-81
2023/10/25 05:08:53;;;;;;;17.80;10.70;;;;;;;;;;7364641;19;20414;-85
2023/10/25 05:11:20;;;;;;;19.00;11.15;;;;;;;;;;7359529;19;19999;-86
2023/10/25 05:13:46;;;;;;;20.63;10.43;;;;;;;;;;7360818;19;20366;-84
2023/10/25 05:16:11;;;;;;;16.05;10.73;;;;;;;;;;7365727;19;20502;-80
2023/10/25 05:18:36;;;;;;;18.30;9.48;;;;;;;;;;7363792;19;20002;-82
2023/10/25 05:21:03;;;;;;;15.98;9.57;;;;;;;;;;7366761;19;20010;-84
2023/10/25 05:23:31;;;;;;;13.63;8.90;;;;;;;;;;7359006;19;20006;-85
2023/10/25 05:25:58;;;;;;;16.77;8.93;;;;;;;;;;7363143;19;20003;-82
2023/10/25 05:28:23;;;;;;;14.38;8.30;;;;;;;;;;7360059;19;20025;-80
2023/10/25 05:30:49;;;;;;;12.85;7.63;;;;;;;;;;7367159;19;19995;-88
2023/10/25 05:33:17;;;;;;;13.13;7.07;;;;;;;;;;7357867;19;20002;-85
2023/10/25 05:35:43;;;;;;;17.25;7.90;;;;;;;;;;7359290;19;20431;-84
2023/10/25 05:38:08;;;;;;;16.92;8.50;;;;;;;;;;7363047;19;20009;-82
2023/10/25 05:40:33;;;;;;;16.63;7.85;;;;;;;;;;7361118;19;20601;-84
2023/10/25 05:43:00;;;;;;;15.35;8.00;;;;;;;;;;7362863;19;20365;-79
2023/10/25 05:45:25;;;;;;;14.15;8.13;;;;;;;;;;7354313;19;20102;-87
2023/10/25 05:47:50;;;;;;;13.70;7.53;;;;;;;;;;7361054;19;20410;-82
2023/10/25 05:50:16;;;;;;;15.32;7.88;;;;;;;;;;7364806;19;20442;-83
2023/10/25 05:52:44;;;;;;;14.73;7.10;;;;;;;;;;7353665;19;20014;-82
2023/10/25 05:55:10;;;;;;;15.85;8.15;;;;;;;;;;7342995;19;19999;-88
2023/10/25 05:57:35;;;;;;;13.05;7.50;;;;;;;;;;7359405;19;19999;-83
2023/10/25 06:00:00;;;;;;;12.02;7.10;;;;;;;;;;7366451;19;20010;-83
2023/10/25 06:02:26;;;;;;;14.43;7.65;;;;;;;;;;7363236;19;20009;-83
2023/10/25 06:04:54;;;;;;;13.45;8.02;;;;;;;;;;7362992;19;20590;-81
2023/10/25 06:07:19;;;;;;;13.55;7.80;;;;;;;;;;7361925;19;20754;-79
2023/10/25 06:09:45;;;;;;;15.25;8.23;;;;;;;;;;7329768;19;19998;-84
2023/10/25 06:12:10;;;;;;;11.07;6.95;;;;;;;;;;7367052;19;20030;-81
2023/10/25 06:14:35;;;;;;;12.48;8.20;;;;;;;;;;7364642;19;19995;-85
2023/10/25 06:17:01;;;;;;;17.88;8.77;;;;;;;;;;7359844;19;20030;-80
2023/10/25 06:19:26;;;;;;;13.48;9.35;;;;;;;;;;7358633;19;19995;-83
2023/10/25 06:21:52;;;;;;;14.20;9.75;;;;;;;;;;7363063;19;20007;-82
2023/10/25 06:24:17;;;;;;;15.23;9.65;;;;;;;;;;7360816;19;20039;-82
2023/10/25 06:26:42;;;;;;;12.97;9.90;;;;;;;;;;7362084;19;20566;-80
2023/10/25 06:29:08;;;;;;;13.45;9.18;;;;;;;;;;7362227;19;20215;-79
2023/10/25 06:31:33;;;;;;;15.60;10.20;;;;;;;;;;7363672;19;20005;-82
2023/10/25 06:33:58;;;;;;;19.77;10.70;;;;;;;;;;7359733;19;20066;-84
2023/10/25 06:36:23;;;;;;;15.77;10.30;;;;;;;;;;7363406;19;20018;-80
2023/10/25 06:38:49;;;;;;;18.00;11.10;;;;;;;;;;7356221;19;20454;-82
2023/10/25 06:41:15;;;;;;;15.38;10.50;;;;;;;;;;7360860;19;20415;-82
2023/10/25 06:43:41;;;;;;;15.73;10.35;;;;;;;;;;7362368;19;20017;-82
2023/10/25 06:46:06;;;;;;;15.95;9.57;;;;;;;;;;7362997;19;20002;-85
2023/10/25 06:48:31;;;;;;;13.45;9.35;;;;;;;;;;7362342;19;19998;-80
2023/10/25 06:50:58;;;;;;;13.93;9.68;;;;;;;;;;7361857;19;20003;-81
2023/10/25 06:53:24;;;;;;;16.15;9.52;;;;;;;;;;7370314;19;19991;-83
2023/10/25 06:55:49;;;;;;;11.02;8.50;;;;;;;;;;7362018;19;20057;-83
2023/10/25 06:58:14;;;;;;;13.25;8.52;;;;;;;;;;7371936;19;20002;-82
2023/10/25 07:00:39;;;;;;;12.23;8.68;;;;;;;;;;7367629;19;21009;-85
2023/10/25 07:03:07;;;;;;;14.35;9.40;;;;;;;;;;7372799;19;20037;-82
2023/10/25 07:05:33;;;;;;;12.68;8.80;;;;;;;;;;7366025;19;20006;-80
2023/10/25 07:07:58;;;;;;;12.95;8.38;;;;;;;;;;7368262;19;20087;-81
2023/10/25 07:10:24;;;;;;;10.48;7.90;;;;;;;;;;7366378;19;20074;-81
2023/10/25 07:12:49;;;;;;;12.20;8.20;;;;;;;;;;7366499;19;20373;-83
2023/10/25 07:15:15;;;;;;;10.90;7.95;;;;;;;;;;7362616;19;20386;-84
2023/10/25 07:17:41;;;;;;;10.93;8.25;;;;;;;;;;7370309;19;20620;-82
2023/10/25 07:20:07;;;;;;;19.08;10.88;;;;;;;;;;7372268;19;20025;-80
2023/10/25 07:22:32;;;;;;;11.65;7.35;;;;;;;;;;7359935;19;20002;-87
2023/10/25 07:24:57;;;;;;;12.73;8.15;;;;;;;;;;7364469;19;20008;-85
2023/10/25 07:27:23;;;;;;;11.10;7.05;;;;;;;;;;7373022;19;20087;-82
2023/10/25 07:29:48;;;;;;;11.27;7.20;;;;;;;;;;7364086;19;20015;-89
2023/10/25 07:32:13;;;;;;;12.02;8.38;;;;;;;;;;7367588;19;20226;-85
2023/10/25 07:34:39;;;;;;;12.30;8.80;;;;;;;;;;7364760;19;19994;-82
2023/10/25 07:37:05;;;;;;;12.35;7.75;;;;;;;;;;7368000;19;20239;-80
2023/10/25 07:39:30;;;;;;;9.73;7.03;;;;;;;;;;7356220;19;20014;-83
2023/10/25 07:41:55;;;;;;;12.02;7.35;;;;;;;;;;7368642;19;20415;-80
2023/10/25 07:44:20;;;;;;;10.27;6.27;;;;;;;;;;7370364;19;20003;-87
2023/10/25 07:46:45;;;;;;;11.35;6.70;;;;;;;;;;7364822;19;20545;-80
2023/10/25 07:49:11;;;;;;;9.18;5.60;;;;;;;;;;7372554;19;20006;-80
2023/10/25 07:51:36;;;;;;;8.93;5.37;;;;;;;;;;7365253;19;20343;-87
2023/10/25 07:54:01;;;;;;;10.60;5.13;;;;;;;;;;7370128;19;20244;-79
2023/10/25 07:56:26;;;;;;;8.25;4.45;;;;;;;;;;7364991;19;20018;-82
2023/10/25 07:58:51;;;;;;;7.50;3.72;;;;;;;;;;7362325;19;20850;-82
2023/10/25 08:01:17;;;;;;;7.88;3.55;;;;;;;;;;7367348;19;20487;-84
2023/10/25 08:03:42;;;;;;;6.23;3.30;;;;;;;;;;7363696;19;20119;-80
2023/10/25 08:06:07;;;;;;;7.60;2.83;;;;;;;;;;7365947;19;20266;-84
2023/10/25 08:08:32;;;;;;;8.70;2.72;;;;;;;;;;7369894;19;20228;-82
2023/10/25 08:11:01;;;;;;;5.43;2.10;;;;;;;;;;7359384;19;20800;-80
2023/10/25 08:13:27;;;;;;;6.15;2.28;;;;;;;;;;7370736;19;20395;-85
2023/10/25 08:15:55;;;;;;;5.00;2.00;;;;;;;;;;7356691;19;20025;-89
2023/10/25 08:18:20;;;;;;;5.82;2.42;;;;;;;;;;7361180;19;20381;-82
2023/10/25 08:20:45;;;;;;;7.35;2.90;;;;;;;;;;7367916;19;20342;-88
2023/10/25 08:23:11;;;;;;;5.90;2.70;;;;;;;;;;7366334;19;20224;-83
2023/10/25 08:25:36;;;;;;;5.68;2.60;;;;;;;;;;7357238;19;20251;-85
2023/10/25 08:28:01;;;;;;;5.68;2.65;;;;;;;;;;7367640;19;20304;-87
2023/10/25 08:30:27;;;;;;;9.20;2.60;;;;;;;;;;7366754;19;20279;-82
2023/10/25 08:32:52;;;;;;;5.75;2.28;;;;;;;;;;7362685;19;20061;-90
2023/10/25 08:35:18;;;;;;;6.95;2.50;;;;;;;;;;7350247;19;20009;-80
2023/10/25 08:37:43;;;;;;;6.63;2.38;;;;;;;;;;7361956;19;20089;-86
2023/10/25 08:40:08;;;;;;;5.30;2.40;;;;;;;;;;7361850;19;20015;-82
2023/10/25 08:42:33;;;;;;;6.25;2.55;;;;;;;;;;7367149;19;20708;-85
2023/10/25 08:44:59;;;;;;;7.17;2.67;;;;;;;;;;7363345;19;20066;-85
2023/10/25 08:47:24;;;;;;;5.47;2.65;;;;;;;;;;7368006;19;20841;-81
2023/10/25 08:49:49;;;;;;;6.40;2.60;;;;;;;;;;7364700;19;20010;-85
2023/10/25 08:52:16;;;;;;;9.57;2.90;;;;;;;;;;7365400;19;20254;-85
2023/10/25 08:54:41;;;;;;;6.60;2.70;;;;;;;;;;7359887;19;20007;-83
2023/10/25 08:57:07;;;;;;;6.78;2.67;;;;;;;;;;7367820;19;20005;-83
2023/10/25 08:59:42;;;;;;;8.75;3.70;;;;;;;;;;7368094;19;19995;-84
2023/10/25 09:02:09;;;;;;;5.65;2.95;;;;;;;;;;7367313;19;20002;-86
2023/10/25 09:04:34;;;;;;;5.78;3.08;;;;;;;;;;7366512;19;20022;-82
2023/10/25 09:06:59;;;;;;;6.07;2.40;;;;;;;;;;7359227;19;20297;-84
2023/10/25 09:09:45;;;;;;;7.57;3.63;;;;;;;;;;7361537;19;20827;-80
2023/10/25 09:12:18;;;;;;;7.22;3.08;;;;;;;;;;7367395;19;20307;-81
2023/10/25 09:14:47;;;;;;;8.05;3.25;;;;;;;;;;7360342;19;19999;-86
2023/10/25 09:17:12;;;;;;;8.02;4.40;;;;;;;;;;7368337;19;20254;-84
2023/10/25 09:19:41;;;;;;;10.02;5.20;;;;;;;;;;7365002;19;19999;-82
2023/10/25 09:22:19;;;;;;;4.97;2.38;;;;;;;;;;7361649;19;20372;-84
2023/10/25 09:24:48;;;;;;;3.35;1.60;;;;;;;;;;7345625;19;20491;-87
2023/10/25 09:27:13;;;;;;;3.90;1.92;;;;;;;;;;7368381;19;20010;-89
2023/10/25 09:29:38;;;;;;;7.57;3.20;;;;;;;;;;7366948;19;19991;-83
2023/10/25 09:32:07;;;;;;;3.53;1.70;;;;;;;;;;7361595;19;20239;-86
2023/10/25 09:34:34;;;;;;;6.03;2.50;;;;;;;;;;7364734;19;20286;-87
2023/10/25 09:37:00;;;;;;;4.95;1.73;;;;;;;;;;7354574;19;20003;-80
2023/10/25 09:39:25;;;;;;;4.70;2.40;;;;;;;;;;7359312;19;20813;-80
2023/10/25 09:41:52;;;;;;;5.87;2.60;;;;;;;;;;7355593;19;20003;-79
2023/10/25 09:44:19;;;;;;;4.82;2.38;;;;;;;;;;7365826;19;20767;-84
2023/10/25 09:46:45;;;;;;;4.75;1.95;;;;;;;;;;7358443;19;20118;-86
2023/10/25 09:49:13;;;;;;;3.72;1.60;;;;;;;;;;7363061;19;20586;-80
2023/10/25 09:51:39;;;;;;;5.00;1.63;;;;;;;;;;7359003;19;20009;-86
2023/10/25 09:54:08;;;;;;;5.15;1.90;;;;;;;;;;7360186;19;20007;-89
2023/10/25 09:56:35;;;;;;;4.60;1.63;;;;;;;;;;7364077;19;20009;-83
2023/10/25 09:59:00;;;;;;;2.97;1.30;;;;;;;;;;7364632;19;20017;-85
2023/10/25 10:01:25;;;;;;;3.90;1.30;;;;;;;;;;7366837;19;20003;-81
2023/10/25 10:04:05;;;;;;;3.67;1.33;;;;;;;;;;7353704;19;20005;-82
2023/10/25 10:06:44;;;;;;;3.70;1.55;;;;;;;;;;7363673;19;19994;-82
2023/10/25 10:09:16;;;;;;;4.32;1.42;;;;;;;;;;7359622;19;19999;-85
2023/10/25 10:11:49;;;;;;;3.63;1.52;;;;;;;;;;7364409;19;19999;-90
2023/10/25 10:14:33;;;;;;;7.63;3.40;;;;;;;;;;7366236;19;20002;-82
2023/10/25 10:17:02;;;;;;;3.58;1.45;;;;;;;;;;7362927;19;20008;-82
2023/10/25 10:19:29;;;;;;;3.65;1.58;;;;;;;;;;7362302;19;20130;-83
2023/10/25 10:22:13;;;;;;;3.72;1.55;;;;;;;;;;7351178;19;20544;-80
2023/10/25 10:24:48;;;;;;;3.95;1.60;;;;;;;;;;7353754;19;20119;-82
2023/10/25 10:27:17;;;;;;;3.03;1.23;;;;;;;;;;7369250;19;20437;-82
2023/10/25 10:29:44;;;;;;;2.83;1.33;;;;;;;;;;7372284;19;20617;-90
2023/10/25 10:32:10;;;;;;;2.85;1.15;;;;;;;;;;7370720;19;20029;-81
2023/10/25 10:34:37;;;;;;;5.40;1.50;;;;;;;;;;7368546;19;20018;-84
2023/10/25 10:37:07;;;;;;;3.03;1.05;;;;;;;;;;7362234;19;20006;-84
2023/10/25 10:39:32;;;;;;;3.50;1.20;;;;;;;;;;7364850;19;20014;-87
2023/10/25 10:42:01;;;;;;;2.80;1.10;;;;;;;;;;7358219;19;20374;-80
2023/10/25 10:44:26;;;;;;;3.22;1.20;;;;;;;;;;7373537;19;20319;-87
2023/10/25 10:46:54;;;;;;;2.30;0.90;;;;;;;;;;7369050;19;20007;-85
2023/10/25 10:49:23;;;;;;;3.25;1.10;;;;;;;;;;7372833;19;20494;-84
2023/10/25 10:51:49;;;;;;;2.45;0.90;;;;;;;;;;7359734;19;20002;-86
2023/10/25 10:54:14;;;;;;;3.90;1.45;;;;;;;;;;7363342;19;20436;-81
2023/10/25 10:56:39;;;;;;;5.07;2.60;;;;;;;;;;7371277;19;20051;-82
2023/10/25 10:59:06;;;;;;;3.65;1.27;;;;;;;;;;7363192;19;20591;-86
2023/10/25 11:01:31;;;;;;;3.08;1.42;;;;;;;;;;7373628;19;20017;-86
2023/10/25 11:03:57;;;;;;;3.90;1.50;;;;;;;;;;7371096;19;19999;-86
2023/10/25 11:06:24;;;;;;;2.90;1.30;;;;;;;;;;7364059;19;19999;-83
2023/10/25 11:08:49;;;;;;;2.47;1.02;;;;;;;;;;7364115;19;20026;-84
2023/10/25 11:11:14;;;;;;;2.80;1.10;;;;;;;;;;7365267;19;20007;-89
2023/10/25 11:13:40;;;;;;;2.10;0.80;;;;;;;;;;7346761;19;20310;-91
2023/10/25 11:16:10;;;;;;;2.28;0.90;;;;;;;;;;7362664;19;20031;-87
2023/10/25 11:18:35;;;;;;;4.43;1.10;;;;;;;;;;7371478;19;19999;-86
2023/10/25 11:21:00;;;;;;;2.95;1.10;;;;;;;;;;7366735;19;20408;-88
2023/10/25 11:23:25;;;;;;;2.25;0.90;;;;;;;;;;7367168;19;19998;-85
2023/10/25 11:25:51;;;;;;;1.97;0.80;;;;;;;;;;7360674;19;20090;-83
2023/10/25 11:28:18;;;;;;;2.40;1.08;;;;;;;;;;7367698;19;20679;-90
2023/10/25 11:30:44;;;;;;;2.97;1.27;;;;;;;;;;7365463;19;20003;-82
2023/10/25 11:33:09;;;;;;;4.63;1.70;;;;;;;;;;7296811;19;20026;-88
2023/10/25 11:35:36;;;;;;;7.78;3.95;;;;;;;;;;7364342;19;19998;-88
2023/10/25 11:38:11;;;;;;;5.18;2.60;;;;;;;;;;7343096;19;20453;-90
2023/10/25 11:40:38;;;;;;;4.97;2.78;;;;;;;;;;7360355;19;20011;-83
2023/10/25 11:43:05;;;;;;;6.13;3.13;;;;;;;;;;7360621;19;20003;-90
2023/10/25 11:45:30;;;;;;;4.35;1.10;;;;;;;;;;7366301;19;20157;-83
2023/10/25 11:47:56;;;;;;;2.60;1.10;;;;;;;;;;7358515;19;20099;-93
2023/10/25 11:50:21;;;;;;;2.13;0.90;;;;;;;;;;7324673;19;20322;-85
2023/10/25 11:52:46;;;;;;;4.18;1.08;;;;;;;;;;7368199;19;20408;-85
2023/10/25 11:55:11;;;;;;;2.50;0.97;;;;;;;;;;7357493;19;20419;-87
2023/10/25 11:57:38;;;;;;;2.23;1.00;;;;;;;;;;7368961;19;20603;-82
2023/10/25 12:00:05;;;;;;;3.05;1.13;;;;;;;;;;7364525;19;20240;-87
2023/10/25 12:02:30;;;;;;;1.80;0.77;;;;;;;;;;7364822;19;20538;-85
2023/10/25 12:04:55;;;;;;;1.97;1.00;;;;;;;;;;7345871;19;20173;-85
2023/10/25 12:07:21;;;;;;;2.17;0.90;;;;;;;;;;7358635;19;20642;-85
2023/10/25 12:09:46;;;;;;;4.25;0.90;;;;;;;;;;7345512;19;20015;-89
2023/10/25 12:12:12;;;;;;;3.17;1.10;;;;;;;;;;7341032;19;20016;-81
2023/10/25 12:14:37;;;;;;;2.28;0.88;;;;;;;;;;7353503;19;20031;-83
2023/10/25 12:17:03;;;;;;;2.33;0.82;;;;;;;;;;7341549;19;20018;-90
2023/10/25 12:19:28;;;;;;;1.45;0.70;;;;;;;;;;7331262;19;20495;-86
2023/10/25 12:21:57;;;;;;;1.20;0.60;;;;;;;;;;7354305;19;20003;-84
2023/10/25 12:24:23;;;;;;;1.75;0.45;;;;;;;;;;7357439;19;20017;-84
2023/10/25 12:26:48;;;;;;;1.98;0.60;;;;;;;;;;7352542;19;20003;-88
2023/10/25 12:29:13;;;;;;;1.03;0.53;;;;;;;;;;7355814;19;20488;-84
2023/10/25 12:31:38;;;;;;;2.57;0.50;;;;;;;;;;7369242;19;20327;-85
2023/10/25 12:34:04;;;;;;;1.60;0.70;;;;;;;;;;7359328;19;20767;-80
2023/10/25 12:36:29;;;;;;;2.17;0.80;;;;;;;;;;7330942;19;20006;-89
2023/10/25 12:38:54;;;;;;;1.98;0.77;;;;;;;;;;7361051;19;20016;-87
2023/10/25 12:41:19;;;;;;;2.30;1.00;;;;;;;;;;7351297;19;20371;-89
2023/10/25 12:43:44;;;;;;;2.58;0.95;;;;;;;;;;7363247;19;20227;-85
2023/10/25 12:46:10;;;;;;;2.87;1.17;;;;;;;;;;7350552;19;19994;-80
2023/10/25 12:48:36;;;;;;;2.50;0.90;;;;;;;;;;7361716;19;20296;-89
2023/10/25 12:51:01;;;;;;;2.38;0.88;;;;;;;;;;7355835;19;20398;-88
2023/10/25 12:53:26;;;;;;;3.13;1.10;;;;;;;;;;7355488;19;20554;-89
2023/10/25 12:55:51;;;;;;;2.78;0.80;;;;;;;;;;7356006;19;20010;-83
2023/10/25 12:58:16;;;;;;;0.93;0.50;;;;;;;;;;7366238;19;19999;-84
2023/10/25 13:00:42;;;;;;;3.72;1.20;;;;;;;;;;7351529;19;20599;-84
2023/10/25 13:03:07;;;;;;;5.72;1.45;;;;;;;;;;7350174;19;20003;-88
2023/10/25 13:05:32;;;;;;;3.70;1.10;;;;;;;;;;7365332;19;19999;-85
2023/10/25 13:07:57;;;;;;;1.23;0.40;;;;;;;;;;7366075;19;20021;-87
2023/10/25 13:10:23;;;;;;;0.30;0.30;;;;;;;;;;7351769;19;20271;-84
2023/10/25 13:12:48;;;;;;;1.10;0.43;;;;;;;;;;7364872;19;20003;-80
2023/10/25 13:15:13;;;;;;;1.53;0.60;;;;;;;;;;7349186;19;20248;-81
2023/10/25 13:17:38;;;;;;;1.02;0.50;;;;;;;;;;7344991;19;20086;-87
2023/10/25 13:20:03;;;;;;;1.45;0.60;;;;;;;;;;7358758;19;20088;-84
2023/10/25 13:22:29;;;;;;;2.17;0.80;;;;;;;;;;7354712;19;20014;-84
2023/10/25 13:24:54;;;;;;;1.30;0.80;;;;;;;;;;7349411;19;20058;-88
2023/10/25 13:27:20;;;;;;;2.60;1.13;;;;;;;;;;7351475;19;20002;-85
2023/10/25 13:29:45;;;;;;;2.63;1.20;;;;;;;;;;7324992;19;20251;-85
2023/10/25 13:32:10;;;;;;;2.73;1.23;;;;;;;;;;7356447;19;19999;-89
2023/10/25 13:34:35;;;;;;;3.70;1.30;;;;;;;;;;7344382;19;20711;-81
2023/10/25 13:37:00;;;;;;;3.77;1.60;;;;;;;;;;7341913;19;20041;-86
2023/10/25 13:39:26;;;;;;;2.70;1.30;;;;;;;;;;7350777;19;20935;-85
2023/10/25 13:41:51;;;;;;;6.65;1.85;;;;;;;;;;7359851;19;19994;-84
2023/10/25 13:44:16;;;;;;;3.47;1.55;;;;;;;;;;7358917;19;20007;-82
2023/10/25 13:46:42;;;;;;;3.33;1.70;;;;;;;;;;7350924;19;20003;-84
2023/10/25 13:49:07;;;;;;;4.03;1.50;;;;;;;;;;7351301;19;20021;-84
2023/10/25 13:51:32;;;;;;;3.42;1.60;;;;;;;;;;7346274;19;20447;-83
2023/10/25 13:53:57;;;;;;;3.95;1.60;;;;;;;;;;7355301;19;20414;-85
2023/10/25 13:56:22;;;;;;;5.77;1.60;;;;;;;;;;7347797;19;20499;-87
2023/10/25 13:58:47;;;;;;;4.87;1.60;;;;;;;;;;7367180;19;20247;-84
2023/10/25 14:01:13;;;;;;;3.07;1.20;;;;;;;;;;7363034;19;20074;-84
2023/10/25 14:03:39;;;;;;;3.95;1.25;;;;;;;;;;7358056;19;20244;-86
2023/10/25 14:06:05;;;;;;;3.10;1.27;;;;;;;;;;7349932;19;20448;-93
2023/10/25 14:08:30;;;;;;;2.90;0.90;;;;;;;;;;7362554;19;20009;-81
2023/10/25 14:10:55;;;;;;;3.95;1.10;;;;;;;;;;7360445;19;20010;-82
2023/10/25 14:13:22;;;;;;;2.38;1.10;;;;;;;;;;7359088;19;20415;-89
2023/10/25 14:15:47;;;;;;;2.97;1.20;;;;;;;;;;7355359;19;20006;-87
2023/10/25 14:18:12;;;;;;;3.08;1.20;;;;;;;;;;7360824;19;20465;-87
2023/10/25 14:20:39;;;;;;;3.08;1.02;;;;;;;;;;7364080;19;20003;-81
2023/10/25 14:23:04;;;;;;;2.33;0.98;;;;;;;;;;7345505;19;20114;-83